createdAt,value
2019-03-30T00:02:21.656Z,45.20
2019-03-30T00:04:52.014Z,39.20
2019-03-30T00:07:22.423Z,39.20
2019-03-30T00:09:53.540Z,43.60
2019-03-30T00:12:24.680Z,48.38
2019-03-30T00:14:55.279Z,39.13
2019-03-30T00:17:35.885Z,40.48
2019-03-30T00:20:07.218Z,36.45
2019-03-30T00:22:41.687Z,39.70
2019-03-30T00:25:16.543Z,41.45
2019-03-30T00:27:47.178Z,46.37
2019-03-30T00:30:19.405Z,46.40
2019-03-30T00:32:54.458Z,41.88
2019-03-30T00:35:29.500Z,43.17
2019-03-30T00:38:06.627Z,44.42
2019-03-30T00:40:42.302Z,40.88
2019-03-30T00:43:13.966Z,39.65
2019-03-30T00:45:44.775Z,41.83
2019-03-30T00:48:15.450Z,39.48
2019-03-30T00:50:45.903Z,44.00
2019-03-30T00:53:16.586Z,42.88
2019-03-30T00:55:47.410Z,46.63
2019-03-30T00:58:18.678Z,41.37
2019-03-30T01:00:50.501Z,39.20
2019-03-30T01:03:22.005Z,46.13
2019-03-30T01:05:52.685Z,45.33
2019-03-30T01:08:23.084Z,40.35
2019-03-30T01:10:53.447Z,51.58
2019-03-30T01:13:23.856Z,47.10
2019-03-30T01:15:54.307Z,51.18
2019-03-30T01:18:24.724Z,51.50
2019-03-30T01:20:55.090Z,49.13
2019-03-30T01:23:25.496Z,47.43
2019-03-30T01:25:55.843Z,49.23
2019-03-30T01:28:26.450Z,45.17
2019-03-30T01:30:56.831Z,42.98
2019-03-30T01:33:27.263Z,48.48
2019-03-30T01:35:57.608Z,52.40
2019-03-30T01:38:28.164Z,46.53
2019-03-30T01:40:58.501Z,55.28
2019-03-30T01:43:28.920Z,54.03
2019-03-30T01:45:59.756Z,52.78
2019-03-30T01:48:30.173Z,55.73
2019-03-30T01:51:00.787Z,52.75
2019-03-30T01:53:31.214Z,53.23
2019-03-30T01:56:01.577Z,48.30
2019-03-30T01:58:32.175Z,49.98
2019-03-30T02:01:02.542Z,54.27
2019-03-30T02:03:32.951Z,47.03
2019-03-30T02:06:03.303Z,48.45
2019-03-30T02:08:33.826Z,46.85
2019-03-30T02:11:04.187Z,46.28
2019-03-30T02:13:34.619Z,50.48
2019-03-30T02:16:05.059Z,52.33
2019-03-30T02:18:35.470Z,47.17
2019-03-30T02:21:05.860Z,45.12
2019-03-30T02:23:37.582Z,49.45
2019-03-30T02:26:07.942Z,46.02
2019-03-30T02:28:38.447Z,46.60
2019-03-30T02:31:08.940Z,50.25
2019-03-30T02:33:39.377Z,45.17
2019-03-30T02:36:09.705Z,44.93
2019-03-30T02:38:40.116Z,48.92
2019-03-30T02:41:10.471Z,52.45
2019-03-30T02:43:40.891Z,50.05
2019-03-30T02:46:11.223Z,48.25
2019-03-30T02:48:41.651Z,46.63
2019-03-30T02:51:12.018Z,43.98
2019-03-30T02:53:42.424Z,45.15
2019-03-30T02:56:12.760Z,39.40
2019-03-30T02:58:43.179Z,41.18
2019-03-30T03:01:13.570Z,46.58
2019-03-30T03:03:43.984Z,46.13
2019-03-30T03:06:14.348Z,48.10
2019-03-30T03:08:44.770Z,44.55
2019-03-30T03:11:15.118Z,42.67
2019-03-30T03:13:45.548Z,43.45
2019-03-30T03:16:15.882Z,46.05
2019-03-30T03:18:46.319Z,47.05
2019-03-30T03:21:16.663Z,43.40
2019-03-30T03:23:47.098Z,72.20
2019-03-30T03:26:17.453Z,98.22
2019-03-30T03:28:47.871Z,61.85
2019-03-30T03:31:18.275Z,56.05
2019-03-30T03:33:48.689Z,59.93
2019-03-30T03:36:19.110Z,50.75
2019-03-30T03:38:49.500Z,46.60
2019-03-30T03:41:19.921Z,47.67
2019-03-30T03:43:50.351Z,44.80
2019-03-30T03:46:20.752Z,48.28
2019-03-30T03:48:51.184Z,42.65
2019-03-30T03:51:26.090Z,48.95
2019-03-30T03:53:54.755Z,48.50
2019-03-30T03:56:28.319Z,48.70
2019-03-30T03:59:01.292Z,44.77
2019-03-30T04:01:34.582Z,45.33
2019-03-30T04:04:08.587Z,40.85
2019-03-30T04:06:41.713Z,40.63
2019-03-30T04:09:13.539Z,40.28
2019-03-30T04:11:45.907Z,39.50
2019-03-30T04:14:19.441Z,38.92
2019-03-30T04:16:49.999Z,43.92
2019-03-30T04:19:20.401Z,36.90
2019-03-30T04:21:50.788Z,38.50
2019-03-30T04:24:21.217Z,38.20
2019-03-30T04:26:51.583Z,40.10
2019-03-30T04:29:22.004Z,47.05
2019-03-30T04:31:52.553Z,43.45
2019-03-30T04:34:22.978Z,37.88
2019-03-30T04:36:53.338Z,48.17
2019-03-30T04:39:23.759Z,40.67
2019-03-30T04:41:54.283Z,44.00
2019-03-30T04:44:24.700Z,39.35
2019-03-30T04:46:55.064Z,45.38
2019-03-30T04:49:25.499Z,40.08
2019-03-30T04:51:57.885Z,46.83
2019-03-30T04:54:27.876Z,42.08
2019-03-30T04:56:58.250Z,50.88
2019-03-30T04:59:28.648Z,39.55
2019-03-30T05:01:59.062Z,43.28
2019-03-30T05:04:29.519Z,47.33
2019-03-30T05:06:59.860Z,39.80
2019-03-30T05:09:30.546Z,38.17
2019-03-30T05:12:00.888Z,35.85
2019-03-30T05:14:31.319Z,35.92
2019-03-30T05:17:01.659Z,41.65
2019-03-30T05:19:32.092Z,40.35
2019-03-30T05:22:12.064Z,41.05
2019-03-30T05:24:34.494Z,41.58
2019-03-30T05:27:04.852Z,39.03
2019-03-30T05:29:35.278Z,36.15
2019-03-30T05:32:05.720Z,42.00
2019-03-30T05:34:36.104Z,39.30
2019-03-30T05:37:06.470Z,40.90
2019-03-30T05:39:36.891Z,34.05
2019-03-30T05:42:07.250Z,42.55
2019-03-30T05:44:37.683Z,40.75
2019-03-30T05:47:09.143Z,38.23
2019-03-30T05:49:39.560Z,39.55
2019-03-30T05:52:09.918Z,37.95
2019-03-30T05:54:40.335Z,33.50
2019-03-30T05:57:10.776Z,37.63
2019-03-30T05:59:41.199Z,38.05
2019-03-30T06:02:11.536Z,40.67
2019-03-30T06:04:41.970Z,38.53
2019-03-30T06:07:12.314Z,54.95
2019-03-30T06:09:42.735Z,87.88
2019-03-30T06:12:13.094Z,94.25
2019-03-30T06:14:43.526Z,53.35
2019-03-30T06:17:15.173Z,43.00
2019-03-30T06:19:45.576Z,37.75
2019-03-30T06:22:15.936Z,39.95
2019-03-30T06:24:46.341Z,40.48
2019-03-30T06:27:16.802Z,34.90
2019-03-30T06:30:06.734Z,34.75
2019-03-30T06:32:37.144Z,37.55
2019-03-30T06:35:07.557Z,36.75
2019-03-30T06:37:37.994Z,36.68
2019-03-30T06:40:08.510Z,100.38
2019-03-30T06:42:38.863Z,90.60
2019-03-30T06:45:09.663Z,52.30
2019-03-30T06:47:40.107Z,46.90
2019-03-30T06:50:11.023Z,46.10
2019-03-30T06:52:56.427Z,49.38
2019-03-30T06:55:14.889Z,51.42
2019-03-30T06:57:45.231Z,46.73
2019-03-30T07:00:16.965Z,50.05
2019-03-30T07:02:47.817Z,45.40
2019-03-30T07:05:18.232Z,52.33
2019-03-30T07:07:49.012Z,53.00
2019-03-30T07:10:19.442Z,43.20
2019-03-30T07:12:52.471Z,44.55
2019-03-30T07:15:23.403Z,44.88
2019-03-30T07:17:56.706Z,38.02
2019-03-30T07:20:29.319Z,35.80
2019-03-30T07:25:30.685Z,36.53
2019-03-30T07:28:01.040Z,40.20
2019-03-30T07:30:31.470Z,141.80
2019-03-30T07:33:01.874Z,43.40
2019-03-30T07:35:32.272Z,36.03
2019-03-30T07:38:02.701Z,38.35
2019-03-30T07:40:34.042Z,46.23
2019-03-30T07:43:04.845Z,41.05
2019-03-30T07:45:35.280Z,40.25
2019-03-30T07:48:05.699Z,38.80
2019-03-30T07:50:36.222Z,48.13
2019-03-30T07:53:06.571Z,39.35
2019-03-30T07:55:36.997Z,35.03
2019-03-30T07:58:07.403Z,33.10
2019-03-30T08:00:38.922Z,34.48
2019-03-30T08:03:10.576Z,48.00
2019-03-30T08:05:42.516Z,45.17
2019-03-30T08:08:12.895Z,37.28
2019-03-30T08:10:43.326Z,38.85
2019-03-30T08:13:13.684Z,40.63
2019-03-30T08:15:44.035Z,44.63
2019-03-30T08:18:14.471Z,64.22
2019-03-30T08:20:44.846Z,35.92
2019-03-30T08:23:15.291Z,38.25
2019-03-30T08:25:46.834Z,42.10
2019-03-30T08:28:17.275Z,36.55
2019-03-30T08:30:47.631Z,44.15
2019-03-30T08:33:18.058Z,55.25
2019-03-30T08:35:48.408Z,43.55
2019-03-30T08:38:18.834Z,48.23
2019-03-30T08:40:49.188Z,46.50
2019-03-30T08:43:19.603Z,40.90
2019-03-30T08:45:49.978Z,48.25
2019-03-30T08:48:20.500Z,41.92
2019-03-30T08:50:50.872Z,43.50
2019-03-30T08:53:21.289Z,52.38
2019-03-30T08:55:51.648Z,45.17
2019-03-30T08:58:22.074Z,53.55
2019-03-30T09:00:52.431Z,40.90
2019-03-30T09:03:22.920Z,63.08
2019-03-30T09:05:53.295Z,45.20
2019-03-30T09:08:23.711Z,48.42
2019-03-30T09:10:54.068Z,38.58
2019-03-30T09:13:24.499Z,40.70
2019-03-30T09:15:54.854Z,68.35
2019-03-30T09:18:26.483Z,41.33
2019-03-30T09:20:56.962Z,177.50
2019-03-30T09:23:27.363Z,38.48
2019-03-30T09:25:57.734Z,36.68
2019-03-30T09:28:28.153Z,41.20
2019-03-30T09:30:58.494Z,37.75
2019-03-30T09:33:28.971Z,43.48
2019-03-30T09:35:59.401Z,55.20
2019-03-30T09:38:29.839Z,38.58
2019-03-30T09:41:00.250Z,41.70
2019-03-30T09:43:30.671Z,39.10
2019-03-30T09:46:01.128Z,40.70
2019-03-30T09:48:31.652Z,41.92
2019-03-30T09:51:02.092Z,40.17
2019-03-30T09:53:32.564Z,41.33
2019-03-30T09:56:02.947Z,40.80
2019-03-30T09:58:33.351Z,46.20
2019-03-30T10:01:03.706Z,38.20
2019-03-30T10:03:34.151Z,37.98
2019-03-30T10:06:04.502Z,58.92
2019-03-30T10:08:34.938Z,404.90
2019-03-30T10:11:05.313Z,34.88
2019-03-30T10:13:35.715Z,32.30
2019-03-30T10:16:06.077Z,34.03
2019-03-30T10:18:36.502Z,34.35
2019-03-30T10:21:06.857Z,34.13
2019-03-30T10:23:37.276Z,40.90
2019-03-30T10:26:08.942Z,39.75
2019-03-30T10:28:39.382Z,66.35
2019-03-30T10:31:09.740Z,34.60
2019-03-30T10:33:40.174Z,37.25
2019-03-30T10:36:10.581Z,33.75
2019-03-30T10:38:41.213Z,57.75
2019-03-30T10:41:11.636Z,33.05
2019-03-30T10:43:42.342Z,47.30
2019-03-30T10:46:12.706Z,48.00
2019-03-30T10:48:43.116Z,43.78
2019-03-30T10:51:13.490Z,36.48
2019-03-30T10:53:43.912Z,40.65
2019-03-30T10:56:14.274Z,38.38
2019-03-30T10:58:44.684Z,34.63
2019-03-30T11:01:15.080Z,36.80
2019-03-30T11:03:45.575Z,43.60
2019-03-30T11:06:15.929Z,32.83
2019-03-30T11:08:46.459Z,31.85
2019-03-30T11:11:16.834Z,31.15
2019-03-30T11:13:47.243Z,31.85
2019-03-30T11:16:17.618Z,31.65
2019-03-30T11:18:48.031Z,33.95
2019-03-30T11:21:18.383Z,35.80
2019-03-30T11:23:48.815Z,38.02
2019-03-30T11:26:19.189Z,32.98
2019-03-30T11:28:49.618Z,31.73
2019-03-30T11:31:20.052Z,36.75
2019-03-30T11:33:50.476Z,31.68
2019-03-30T11:36:20.855Z,40.80
2019-03-30T11:38:51.264Z,29.02
2019-03-30T11:41:24.746Z,29.23
2019-03-30T11:43:53.684Z,38.70
2019-03-30T11:46:24.071Z,36.28
2019-03-30T11:48:54.483Z,34.15
2019-03-30T11:51:24.895Z,30.00
2019-03-30T11:53:55.321Z,37.40
2019-03-30T11:56:25.694Z,30.97
2019-03-30T11:58:56.111Z,33.13
2019-03-30T12:01:26.483Z,35.17
2019-03-30T12:03:57.055Z,37.17
2019-03-30T12:06:27.407Z,31.75
2019-03-30T12:08:57.834Z,35.85
2019-03-30T12:11:28.207Z,34.40
2019-03-30T12:13:58.619Z,32.08
2019-03-30T12:16:28.999Z,30.88
2019-03-30T12:18:59.420Z,32.90
2019-03-30T12:21:29.779Z,33.60
2019-03-30T12:24:00.197Z,33.00
2019-03-30T12:26:30.552Z,32.73
2019-03-30T12:29:00.986Z,36.25
2019-03-30T12:31:31.356Z,38.42
2019-03-30T12:34:01.865Z,29.07
2019-03-30T12:36:32.343Z,29.10
2019-03-30T12:39:03.172Z,34.35
2019-03-30T12:41:34.511Z,37.93
2019-03-30T12:44:04.943Z,31.85
2019-03-30T12:46:35.379Z,31.93
2019-03-30T12:49:06.996Z,38.85
2019-03-30T12:51:37.416Z,35.13
2019-03-30T12:54:07.828Z,36.75
2019-03-30T12:56:38.239Z,39.35
2019-03-30T12:59:08.660Z,34.48
2019-03-30T13:01:39.242Z,33.70
2019-03-30T13:04:09.643Z,31.42
2019-03-30T13:06:40.083Z,32.35
2019-03-30T13:09:10.503Z,34.00
2019-03-30T13:11:40.927Z,35.65
2019-03-30T13:14:11.356Z,42.08
2019-03-30T13:16:41.779Z,256.00
2019-03-30T13:19:12.203Z,41.45
2019-03-30T13:21:52.455Z,33.83
2019-03-30T13:24:14.680Z,36.13
2019-03-30T13:26:45.102Z,59.53
2019-03-30T13:29:15.506Z,33.85
2019-03-30T13:31:45.931Z,58.63
2019-03-30T13:34:16.343Z,36.03
2019-03-30T13:36:46.751Z,36.45
2019-03-30T13:39:17.168Z,34.08
2019-03-30T13:41:47.614Z,37.83
2019-03-30T13:44:18.042Z,36.23
2019-03-30T13:46:48.440Z,41.65
2019-03-30T13:49:18.876Z,41.50
2019-03-30T13:51:49.288Z,41.08
2019-03-30T13:54:19.687Z,35.15
2019-03-30T13:56:50.089Z,37.30
2019-03-30T13:59:20.531Z,47.45
2019-03-30T14:01:50.972Z,50.80
2019-03-30T14:04:21.379Z,62.62
2019-03-30T14:06:51.799Z,43.40
2019-03-30T14:09:22.251Z,39.20
2019-03-30T14:11:52.712Z,36.30
2019-03-30T14:14:23.152Z,41.35
2019-03-30T14:16:53.649Z,46.85
2019-03-30T14:19:24.106Z,58.20
2019-03-30T14:21:54.520Z,34.33
2019-03-30T14:24:24.947Z,34.48
2019-03-30T14:26:55.301Z,105.22
2019-03-30T14:29:25.728Z,35.30
2019-03-30T14:31:56.104Z,38.00
2019-03-30T14:34:26.503Z,47.62
2019-03-30T14:36:56.875Z,40.25
2019-03-30T14:39:27.321Z,45.15
2019-03-30T14:41:57.727Z,38.95
2019-03-30T14:44:28.147Z,48.08
2019-03-30T14:46:58.679Z,42.80
2019-03-30T14:49:29.111Z,40.60
2019-03-30T14:51:59.530Z,38.15
2019-03-30T14:54:29.944Z,53.58
2019-03-30T14:57:00.357Z,42.27
2019-03-30T14:59:30.781Z,63.02
2019-03-30T15:02:01.415Z,42.45
2019-03-30T15:04:31.915Z,41.55
2019-03-30T15:07:02.332Z,36.70
2019-03-30T15:09:32.758Z,42.13
2019-03-30T15:12:03.188Z,36.38
2019-03-30T15:14:33.584Z,38.15
2019-03-30T15:17:04.001Z,40.43
2019-03-30T15:19:35.415Z,46.23
2019-03-30T15:22:05.932Z,41.10
2019-03-30T15:24:36.346Z,42.73
2019-03-30T15:27:06.719Z,40.15
2019-03-30T15:29:37.137Z,44.50
2019-03-30T15:32:07.502Z,40.90
2019-03-30T15:34:37.855Z,39.00
2019-03-30T15:37:08.279Z,37.55
2019-03-30T15:39:38.651Z,40.03
2019-03-30T15:42:08.997Z,44.50
2019-03-30T15:44:39.404Z,42.53
2019-03-30T15:47:09.783Z,49.00
2019-03-30T15:49:40.128Z,42.03
2019-03-30T15:52:14.019Z,42.20
2019-03-30T15:54:42.555Z,37.35
2019-03-30T15:57:14.203Z,37.48
2019-03-30T15:59:44.961Z,87.33
2019-03-30T16:02:16.118Z,55.33
2019-03-30T16:04:46.486Z,40.05
2019-03-30T16:07:16.911Z,56.77
2019-03-30T16:09:47.255Z,38.83
2019-03-30T16:12:17.615Z,44.48
2019-03-30T16:14:48.036Z,37.33
2019-03-30T16:17:18.391Z,42.25
2019-03-30T16:19:48.763Z,43.00
2019-03-30T16:22:19.177Z,40.35
2019-03-30T16:24:49.550Z,40.12
2019-03-30T16:27:28.677Z,41.15
2019-03-30T16:29:51.960Z,42.25
2019-03-30T16:32:22.372Z,43.05
2019-03-30T16:34:52.853Z,44.90
2019-03-30T16:37:23.387Z,38.25
2019-03-30T16:39:53.737Z,42.40
2019-03-30T16:42:25.363Z,45.35
2019-03-30T16:44:55.763Z,41.28
2019-03-30T16:47:26.194Z,59.48
2019-03-30T16:49:56.544Z,36.28
2019-03-30T16:52:26.978Z,43.68
2019-03-30T16:54:58.428Z,40.73
2019-03-30T16:57:42.169Z,48.38
2019-03-30T17:00:00.977Z,37.95
2019-03-30T17:02:32.598Z,40.50
2019-03-30T17:05:02.960Z,102.87
2019-03-30T17:07:33.368Z,46.10
2019-03-30T17:10:08.025Z,43.90
2019-03-30T17:12:38.449Z,71.80
2019-03-30T17:15:09.015Z,44.05
2019-03-30T17:17:39.443Z,45.45
2019-03-30T17:20:09.896Z,42.88
2019-03-30T17:22:40.411Z,56.55
2019-03-30T17:25:10.899Z,61.90
2019-03-30T17:27:41.313Z,114.80
2019-03-30T17:30:11.787Z,69.87
2019-03-30T17:32:42.194Z,80.20
2019-03-30T17:35:12.558Z,86.82
2019-03-30T17:37:42.972Z,71.70
2019-03-30T17:40:13.528Z,143.05
2019-03-30T17:42:43.969Z,187.25
2019-03-30T17:45:14.603Z,163.05
2019-03-30T17:47:45.023Z,173.85
2019-03-30T17:50:15.640Z,181.07
2019-03-30T17:52:46.072Z,177.97
2019-03-30T17:55:16.428Z,134.97
2019-03-30T17:57:46.891Z,69.67
2019-03-30T18:00:19.569Z,108.25
2019-03-30T18:02:49.988Z,293.25
2019-03-30T18:05:20.556Z,409.15
2019-03-30T18:07:51.004Z,440.98
2019-03-30T18:10:21.483Z,425.68
2019-03-30T18:12:52.926Z,430.80
2019-03-30T18:15:23.305Z,388.68
2019-03-30T18:17:56.502Z,394.18
2019-03-30T18:20:25.734Z,195.50
2019-03-30T18:22:56.173Z,258.70
2019-03-30T18:25:26.539Z,110.00
2019-03-30T18:27:57.200Z,179.18
2019-03-30T18:30:39.377Z,210.48
2019-03-30T18:33:09.807Z,137.88
2019-03-30T18:35:40.594Z,233.15
2019-03-30T18:38:12.832Z,159.35
2019-03-30T18:40:43.115Z,131.03
2019-03-30T18:43:13.626Z,91.32
2019-03-30T18:45:44.036Z,97.37
2019-03-30T18:48:16.168Z,79.87
2019-03-30T18:50:50.861Z,79.77
2019-03-30T18:53:26.524Z,72.10
2019-03-30T18:55:57.667Z,67.22
2019-03-30T18:58:41.057Z,71.10
2019-03-30T19:01:00.070Z,75.32
2019-03-30T19:03:30.481Z,71.95
2019-03-30T19:06:00.837Z,84.10
2019-03-30T19:08:34.406Z,79.82
2019-03-30T19:11:03.359Z,63.70
2019-03-30T19:13:33.777Z,76.72
2019-03-30T19:16:04.150Z,80.10
2019-03-30T19:18:34.560Z,77.42
2019-03-30T19:21:04.935Z,72.27
2019-03-30T19:23:35.365Z,66.35
2019-03-30T19:26:05.730Z,157.37
2019-03-30T19:28:36.167Z,140.47
2019-03-30T19:31:06.538Z,103.45
2019-03-30T19:33:36.972Z,108.87
2019-03-30T19:36:09.870Z,95.53
2019-03-30T19:38:39.378Z,92.60
2019-03-30T19:41:10.832Z,68.78
2019-03-30T19:43:41.315Z,81.30
2019-03-30T19:46:11.742Z,75.52
2019-03-30T19:48:42.163Z,65.52
2019-03-30T19:51:12.674Z,71.28
2019-03-30T19:53:43.214Z,71.92
2019-03-30T19:56:13.617Z,58.40
2019-03-30T19:58:44.143Z,74.17
2019-03-30T20:01:14.975Z,74.70
2019-03-30T20:03:45.341Z,60.40
2019-03-30T20:06:15.760Z,95.87
2019-03-30T20:08:47.387Z,92.02
2019-03-30T20:11:17.804Z,63.45
2019-03-30T20:13:48.219Z,56.65
2019-03-30T20:16:18.650Z,77.87
2019-03-30T20:18:49.012Z,84.62
2019-03-30T20:21:19.360Z,87.05
2019-03-30T20:23:49.798Z,123.85
2019-03-30T20:26:20.157Z,108.10
2019-03-30T20:28:50.595Z,105.55
2019-03-30T20:31:21.019Z,98.82
2019-03-30T20:33:51.461Z,97.62
2019-03-30T20:36:21.836Z,102.25
2019-03-30T20:38:52.270Z,99.10
2019-03-30T20:41:22.643Z,102.82
2019-03-30T20:43:53.088Z,129.97
2019-03-30T20:46:23.462Z,88.30
2019-03-30T20:48:53.889Z,98.07
2019-03-30T20:51:24.240Z,164.93
2019-03-30T20:53:55.962Z,119.87
2019-03-30T20:56:26.336Z,152.65
2019-03-30T20:58:57.973Z,121.92
2019-03-30T21:01:28.323Z,96.20
2019-03-30T21:03:58.725Z,79.70
2019-03-30T21:06:29.072Z,82.67
2019-03-30T21:08:59.484Z,62.05
2019-03-30T21:11:29.866Z,72.65
2019-03-30T21:14:00.286Z,67.03
2019-03-30T21:16:30.639Z,65.97
2019-03-30T21:19:01.073Z,71.40
2019-03-30T21:21:31.515Z,60.85
2019-03-30T21:24:01.951Z,56.73
2019-03-30T21:26:32.330Z,59.50
2019-03-30T21:29:02.765Z,59.10
2019-03-30T21:31:33.134Z,70.10
2019-03-30T21:34:03.547Z,61.65
2019-03-30T21:36:33.923Z,60.63
2019-03-30T21:39:06.075Z,64.10
2019-03-30T21:41:36.932Z,67.90
2019-03-30T21:44:21.085Z,72.45
2019-03-30T21:46:39.394Z,69.87
2019-03-30T21:49:09.795Z,66.65
2019-03-30T21:51:40.163Z,69.40
2019-03-30T21:54:10.576Z,58.68
2019-03-30T21:56:40.929Z,56.98
2019-03-30T21:59:11.343Z,62.35
2019-03-30T22:01:41.696Z,59.55
2019-03-30T22:04:12.137Z,62.20
2019-03-30T22:06:43.601Z,60.55
2019-03-30T22:09:14.022Z,59.77
2019-03-30T22:11:44.391Z,63.25
2019-03-30T22:14:14.804Z,59.93
2019-03-30T22:16:45.178Z,52.43
2019-03-30T22:19:15.593Z,53.00
2019-03-30T22:21:45.940Z,60.83
2019-03-30T22:24:16.387Z,53.45
2019-03-30T22:26:46.731Z,56.83
2019-03-30T22:29:17.162Z,50.48
2019-03-30T22:31:47.528Z,67.80
2019-03-30T22:34:17.943Z,68.02
2019-03-30T22:36:48.316Z,60.92
2019-03-30T22:39:18.734Z,60.17
2019-03-30T22:41:49.138Z,57.27
2019-03-30T22:44:19.549Z,64.12
2019-03-30T22:46:49.963Z,58.02
2019-03-30T22:49:20.357Z,64.22
2019-03-30T22:51:50.782Z,60.92
2019-03-30T22:54:21.182Z,62.95
2019-03-30T22:56:51.604Z,59.53
2019-03-30T22:59:22.134Z,55.48
2019-03-30T23:01:52.562Z,85.32
2019-03-30T23:04:22.994Z,96.87
2019-03-30T23:06:53.410Z,79.03
2019-03-30T23:09:23.813Z,75.78
2019-03-30T23:11:54.383Z,57.98
2019-03-30T23:14:24.812Z,60.95
2019-03-30T23:16:55.241Z,63.70
2019-03-30T23:19:25.669Z,62.38
2019-03-30T23:21:56.086Z,63.68
2019-03-30T23:24:26.496Z,67.05
2019-03-30T23:26:57.030Z,60.20
2019-03-30T23:29:27.448Z,66.70
2019-03-30T23:31:57.880Z,59.33
2019-03-30T23:34:29.821Z,57.10
2019-03-30T23:37:00.819Z,60.60
2019-03-30T23:39:33.340Z,58.65
2019-03-30T23:42:14.992Z,61.28
2019-03-30T23:44:54.811Z,61.50
2019-03-30T23:47:26.888Z,61.88
2019-03-30T23:49:57.293Z,63.63
2019-03-30T23:52:27.924Z,60.75
2019-03-30T23:54:59.448Z,58.95
2019-03-30T23:57:36.113Z,56.35
